Time;durP1;ratioP1;P1;durP2;ratioP2;P2;SDS_P1;SDS_P2;PMS_P1;PMS_P2;Temp;Humidity;BMP_temperature;BMP_pressure;BME280_temperature;BME280_humidity;BME280_pressure;Samples;Min_cycle;Max_cycle;Signal;HPM_P1;HPM_P2
2021/01/26 00:01:44;;;;;;;3.47;3.38;;;-0.70;99.90;;;;;;5063622;28;20219;-77
2021/01/26 00:04:10;;;;;;;3.47;3.35;;;-0.70;99.90;;;;;;5062434;28;20226;-77
2021/01/26 00:06:37;;;;;;;4.32;4.13;;;-0.80;99.90;;;;;;5063512;28;20226;-77
2021/01/26 00:09:05;;;;;;;4.00;3.80;;;-0.80;99.90;;;;;;5064373;28;20222;-77
2021/01/26 00:11:31;;;;;;;3.53;3.42;;;-0.80;99.90;;;;;;5066726;28;20226;-76
2021/01/26 00:13:58;;;;;;;4.03;3.83;;;-0.80;99.90;;;;;;5067979;28;20222;-77
2021/01/26 00:16:24;;;;;;;3.78;3.58;;;-0.90;99.90;;;;;;5069466;28;20221;-77
2021/01/26 00:18:51;;;;;;;4.28;4.07;;;-1.00;99.90;;;;;;5060641;28;20227;-77
2021/01/26 00:21:18;;;;;;;3.95;3.75;;;-1.00;99.90;;;;;;5048495;28;20225;-77
2021/01/26 00:23:44;;;;;;;4.22;4.00;;;-1.00;99.90;;;;;;5061209;28;20222;-76
2021/01/26 00:26:12;;;;;;;4.07;3.88;;;-1.00;99.90;;;;;;5064613;28;20588;-76
2021/01/26 00:28:38;;;;;;;4.20;4.00;;;-1.00;99.90;;;;;;5061842;28;20241;-76
2021/01/26 00:31:05;;;;;;;4.30;4.10;;;-1.00;99.90;;;;;;5065953;28;20221;-76
2021/01/26 00:33:31;;;;;;;4.15;3.95;;;-0.90;99.90;;;;;;5065982;28;20226;-79
2021/01/26 00:35:58;;;;;;;3.70;3.50;;;-1.00;99.90;;;;;;5065804;28;20256;-75
2021/01/26 00:38:25;;;;;;;4.65;4.35;;;-0.90;99.90;;;;;;5062019;28;20218;-76
2021/01/26 00:40:51;;;;;;;3.80;3.60;;;-1.00;99.90;;;;;;5062426;28;20214;-76
2021/01/26 00:43:19;;;;;;;4.38;4.18;;;-1.00;99.90;;;;;;5083844;28;20206;-78
2021/01/26 00:45:45;;;;;;;3.80;3.65;;;-1.00;99.90;;;;;;5067617;28;20957;-75
2021/01/26 00:48:13;;;;;;;4.03;3.83;;;-1.10;99.90;;;;;;5064283;28;20573;-75
2021/01/26 00:50:40;;;;;;;3.90;3.70;;;-1.10;99.90;;;;;;5059218;28;20251;-76
2021/01/26 00:53:07;;;;;;;4.20;4.00;;;-1.10;99.90;;;;;;5063299;28;20718;-75
2021/01/26 00:55:33;;;;;;;4.40;4.13;;;-1.10;99.90;;;;;;5059051;28;20238;-76
2021/01/26 00:58:00;;;;;;;4.15;3.95;;;-1.10;99.90;;;;;;5057961;28;20222;-78
2021/01/26 01:00:30;;;;;;;3.88;3.67;;;-1.10;99.90;;;;;;5061737;28;22091;-75
2021/01/26 01:02:57;;;;;;;4.50;4.22;;;-1.10;99.90;;;;;;5060480;28;21742;-75
2021/01/26 01:05:24;;;;;;;4.07;3.88;;;-1.10;99.90;;;;;;5059628;28;20218;-76
2021/01/26 01:07:50;;;;;;;4.65;4.25;;;-1.10;99.90;;;;;;5063839;28;20221;-77
2021/01/26 01:10:21;;;;;;;4.10;3.90;;;-1.10;99.90;;;;;;5069043;28;20264;-74
2021/01/26 01:12:47;;;;;;;3.90;3.70;;;-1.10;99.90;;;;;;5061877;28;20237;-76
2021/01/26 01:15:16;;;;;;;4.35;4.15;;;-1.10;99.90;;;;;;5062585;28;20230;-75
2021/01/26 01:17:44;;;;;;;4.10;3.90;;;-1.10;99.90;;;;;;5062190;28;20228;-77
2021/01/26 01:20:13;;;;;;;4.25;4.05;;;-1.10;99.90;;;;;;5061779;28;20229;-76
2021/01/26 01:22:40;;;;;;;4.45;4.25;;;-1.10;99.90;;;;;;5060224;28;20560;-75
2021/01/26 01:25:07;;;;;;;4.00;3.80;;;-1.20;99.90;;;;;;5061072;28;20248;-75
2021/01/26 01:27:34;;;;;;;3.83;3.72;;;-1.30;99.90;;;;;;5058089;28;20223;-75
2021/01/26 01:30:01;;;;;;;4.00;3.80;;;-1.30;99.90;;;;;;5057318;28;20222;-75
2021/01/26 01:32:27;;;;;;;3.50;3.40;;;-1.30;99.90;;;;;;5058089;28;20230;-76
2021/01/26 01:34:55;;;;;;;4.00;3.80;;;-1.20;99.90;;;;;;5064560;28;20218;-77
2021/01/26 01:37:21;;;;;;;4.60;4.30;;;-1.20;99.90;;;;;;5066371;28;20711;-75
2021/01/26 01:39:48;;;;;;;4.00;3.80;;;-1.20;99.90;;;;;;5066433;28;20700;-77
2021/01/26 01:42:15;;;;;;;3.90;3.70;;;-1.20;99.90;;;;;;5064771;28;20225;-75
2021/01/26 01:44:41;;;;;;;4.18;3.97;;;-1.20;99.90;;;;;;5064274;28;20225;-78
2021/01/26 01:47:16;;;;;;;4.10;3.90;;;-1.20;99.90;;;;;;5064651;28;20221;-77
2021/01/26 01:49:46;;;;;;;4.10;3.90;;;-1.20;99.90;;;;;;5064709;28;20266;-77
2021/01/26 01:52:17;;;;;;;4.32;4.13;;;-1.30;99.90;;;;;;5066064;28;20221;-78
2021/01/26 01:54:49;;;;;;;3.75;3.55;;;-1.30;99.90;;;;;;5064466;28;20233;-77
2021/01/26 01:57:21;;;;;;;3.83;3.63;;;-1.20;99.90;;;;;;5067531;28;20697;-78
2021/01/26 01:59:52;;;;;;;3.92;3.72;;;-1.20;99.90;;;;;;5064791;28;20214;-78
2021/01/26 02:02:19;;;;;;;3.92;3.72;;;-1.20;99.90;;;;;;5073431;28;20301;-77
2021/01/26 02:04:46;;;;;;;3.90;3.70;;;-1.20;99.90;;;;;;5070023;28;20708;-77
2021/01/26 02:07:14;;;;;;;4.20;4.00;;;-1.30;99.90;;;;;;5068329;28;20283;-74
2021/01/26 02:09:42;;;;;;;3.60;3.50;;;-1.30;99.90;;;;;;5065734;28;20219;-76
2021/01/26 02:12:11;;;;;;;4.00;3.80;;;-1.30;99.90;;;;;;5065879;28;20913;-77
2021/01/26 02:14:41;;;;;;;3.83;3.70;;;-1.30;99.90;;;;;;5065020;28;20426;-77
2021/01/26 02:17:18;;;;;;;3.75;3.55;;;-1.40;99.90;;;;;;5069861;28;20228;-77
2021/01/26 02:20:27;;;;;;;3.90;3.70;;;-1.40;99.90;;;;;;5062478;28;20224;-77
2021/01/26 02:23:27;;;;;;;4.20;3.90;;;-1.60;99.90;;;;;;5059968;28;20647;-78
2021/01/26 02:26:31;;;;;;;3.60;3.50;;;-1.60;99.90;;;;;;5071218;28;20218;-76
2021/01/26 02:28:59;;;;;;;4.03;3.83;;;-1.70;99.90;;;;;;5063167;28;20236;-77
2021/01/26 02:32:01;;;;;;;3.83;3.63;;;-1.70;99.90;;;;;;5071544;28;20296;-77
2021/01/26 02:35:18;;;;;;;3.90;3.63;;;-1.60;99.90;;;;;;5062928;28;20230;-76
2021/01/26 02:38:25;;;;;;;3.83;3.63;;;-1.60;99.90;;;;;;5045813;28;20277;-77
2021/01/26 02:40:59;;;;;;;4.07;3.88;;;-1.60;99.90;;;;;;5043139;28;20670;-77
2021/01/26 02:43:53;;;;;;;4.30;4.10;;;-1.70;99.90;;;;;;5061533;28;20612;-78
2021/01/26 02:46:30;;;;;;;4.15;3.95;;;-1.70;99.90;;;;;;5060731;28;20229;-77
2021/01/26 02:49:03;;;;;;;4.30;4.10;;;-1.70;99.90;;;;;;5064404;28;20233;-76
2021/01/26 02:51:51;;;;;;;3.50;3.40;;;-1.70;99.90;;;;;;5065917;28;20601;-77
2021/01/26 02:54:23;;;;;;;4.30;4.10;;;-1.70;99.90;;;;;;5064675;28;20282;-79
2021/01/26 02:56:57;;;;;;;3.25;3.15;;;-1.60;99.90;;;;;;5066282;28;20226;-77
2021/01/26 02:59:31;;;;;;;3.70;3.60;;;-1.60;99.90;;;;;;5060885;28;20222;-78
2021/01/26 03:02:04;;;;;;;4.18;3.97;;;-1.50;99.90;;;;;;5061552;28;20309;-77
2021/01/26 03:04:38;;;;;;;4.30;4.10;;;-1.50;99.90;;;;;;5064741;28;20241;-76
2021/01/26 03:07:08;;;;;;;3.70;3.50;;;-1.50;99.90;;;;;;5051606;28;20705;-77
2021/01/26 03:09:40;;;;;;;3.78;3.53;;;-1.50;99.90;;;;;;5046590;28;20215;-79
2021/01/26 03:12:14;;;;;;;4.40;4.20;;;-1.50;99.90;;;;;;5058425;28;20230;-78
2021/01/26 03:14:44;;;;;;;4.20;4.00;;;-1.50;99.90;;;;;;5057185;28;20233;-76
2021/01/26 03:17:15;;;;;;;3.83;3.72;;;-1.50;99.90;;;;;;5064612;28;20234;-78
2021/01/26 03:19:49;;;;;;;3.53;3.42;;;-1.50;99.90;;;;;;5062221;28;20225;-77
2021/01/26 03:22:19;;;;;;;4.10;3.90;;;-1.50;99.90;;;;;;5060960;28;20217;-77
2021/01/26 03:24:46;;;;;;;3.85;3.65;;;-1.60;99.90;;;;;;5063597;28;20625;-78
2021/01/26 03:27:17;;;;;;;4.22;4.03;;;-1.60;99.90;;;;;;5065157;28;20225;-79
2021/01/26 03:29:47;;;;;;;4.22;4.03;;;-1.70;99.90;;;;;;5066214;28;20267;-78
2021/01/26 03:32:20;;;;;;;3.70;3.60;;;-1.80;99.90;;;;;;5067222;28;20229;-76
2021/01/26 03:34:47;;;;;;;4.20;4.00;;;-1.90;99.90;;;;;;5064377;28;20711;-77
2021/01/26 03:37:13;;;;;;;3.67;3.53;;;-1.90;99.90;;;;;;5070121;28;20241;-78
2021/01/26 03:39:40;;;;;;;4.35;4.15;;;-1.90;99.90;;;;;;5062405;28;20237;-79
2021/01/26 03:42:07;;;;;;;3.90;3.70;;;-1.90;99.90;;;;;;5070971;28;20230;-77
2021/01/26 03:44:35;;;;;;;3.88;3.67;;;-1.90;99.90;;;;;;5069671;28;20222;-77
2021/01/26 03:47:26;;;;;;;3.83;3.63;;;-1.90;99.90;;;;;;5061780;28;20237;-77
2021/01/26 03:50:30;;;;;;;3.80;3.60;;;-1.80;99.90;;;;;;5064522;28;20577;-77
2021/01/26 03:53:21;;;;;;;3.65;3.47;;;-1.80;99.90;;;;;;5064577;28;20230;-76
2021/01/26 03:55:53;;;;;;;4.03;3.83;;;-1.90;99.90;;;;;;5066374;28;20703;-78
2021/01/26 03:58:41;;;;;;;4.63;4.43;;;-1.90;99.90;;;;;;5068963;28;20233;-78
2021/01/26 04:01:16;;;;;;;4.00;3.80;;;-1.90;99.90;;;;;;5064911;28;20547;-78
2021/01/26 04:03:57;;;;;;;4.15;3.95;;;-1.90;99.90;;;;;;5074594;28;20222;-77
2021/01/26 04:06:30;;;;;;;4.05;3.85;;;-1.90;99.90;;;;;;5064305;28;20229;-78
2021/01/26 04:09:02;;;;;;;4.03;3.83;;;-1.90;99.90;;;;;;5062681;28;20256;-78
2021/01/26 04:11:31;;;;;;;4.10;3.90;;;-1.90;99.90;;;;;;5069907;28;20222;-78
2021/01/26 04:14:02;;;;;;;4.28;4.07;;;-1.90;99.90;;;;;;5063334;28;20221;-77
2021/01/26 04:16:33;;;;;;;4.40;4.20;;;-1.80;99.90;;;;;;5068104;28;20234;-78
2021/01/26 04:19:03;;;;;;;4.05;3.85;;;-1.80;99.90;;;;;;5066275;28;20223;-77
2021/01/26 04:21:32;;;;;;;4.13;3.92;;;-1.80;99.90;;;;;;5065954;28;20225;-79
2021/01/26 04:24:00;;;;;;;4.32;4.13;;;-1.80;99.90;;;;;;5070285;28;20230;-77
2021/01/26 04:26:31;;;;;;;4.18;3.97;;;-1.80;99.90;;;;;;5063145;28;20276;-78
2021/01/26 04:28:58;;;;;;;3.63;3.45;;;-1.80;99.90;;;;;;5068356;28;20592;-78
2021/01/26 04:31:26;;;;;;;4.32;4.07;;;-1.80;99.90;;;;;;5069303;28;20221;-77
2021/01/26 04:33:53;;;;;;;4.15;3.95;;;-1.90;99.90;;;;;;5065676;28;20221;-78
2021/01/26 04:36:22;;;;;;;4.03;3.83;;;-1.90;99.90;;;;;;5070448;28;20230;-78
2021/01/26 04:38:48;;;;;;;4.20;3.90;;;-1.90;99.90;;;;;;5067131;28;20223;-79
2021/01/26 04:41:35;;;;;;;3.78;3.58;;;-1.90;99.90;;;;;;5072710;28;20225;-78
2021/01/26 04:44:28;;;;;;;3.63;3.53;;;-1.90;99.90;;;;;;5068021;28;20233;-77
2021/01/26 04:47:06;;;;;;;4.03;3.85;;;-1.90;99.90;;;;;;5065936;28;20214;-76
2021/01/26 04:49:45;;;;;;;4.13;3.92;;;-1.90;99.90;;;;;;5067876;28;20237;-77
2021/01/26 04:52:19;;;;;;;4.18;3.97;;;-1.90;99.90;;;;;;5067342;28;20229;-78
2021/01/26 04:55:00;;;;;;;3.95;3.75;;;-1.90;99.90;;;;;;5068126;28;20218;-79
2021/01/26 04:57:42;;;;;;;4.38;4.18;;;-2.00;99.90;;;;;;5064234;28;20228;-77
2021/01/26 05:00:21;;;;;;;4.40;4.20;;;-2.00;99.90;;;;;;5070250;28;20230;-77
2021/01/26 05:03:08;;;;;;;4.30;4.10;;;-1.90;99.90;;;;;;5072250;28;20708;-77
2021/01/26 05:05:39;;;;;;;4.40;4.20;;;-1.90;99.90;;;;;;5064809;28;20629;-77
2021/01/26 05:08:12;;;;;;;4.50;4.30;;;-1.90;99.90;;;;;;5068793;28;20222;-77
2021/01/26 05:10:44;;;;;;;4.07;3.88;;;-1.90;99.90;;;;;;5067935;28;20295;-78
2021/01/26 05:13:15;;;;;;;4.07;3.88;;;-1.90;99.90;;;;;;5065425;28;20226;-78
2021/01/26 05:15:46;;;;;;;3.92;3.72;;;-1.90;99.90;;;;;;5068964;28;20245;-82
2021/01/26 05:18:21;;;;;;;4.00;3.80;;;-1.90;99.90;;;;;;5063541;28;20221;-77
2021/01/26 05:20:54;;;;;;;4.13;3.92;;;-1.90;99.90;;;;;;5066211;28;20221;-77
2021/01/26 05:23:26;;;;;;;3.63;3.45;;;-2.00;99.90;;;;;;5067202;28;20214;-77
2021/01/26 05:25:54;;;;;;;3.53;3.33;;;-2.00;99.90;;;;;;5067542;28;20218;-77
2021/01/26 05:28:22;;;;;;;4.43;4.22;;;-1.90;99.90;;;;;;5065007;28;20293;-78
2021/01/26 05:30:54;;;;;;;4.80;4.47;;;-1.90;99.90;;;;;;5066876;28;20259;-79
2021/01/26 05:33:21;;;;;;;4.38;4.18;;;-1.90;99.90;;;;;;5064148;28;20748;-77
2021/01/26 05:35:55;;;;;;;4.50;4.30;;;-1.90;99.90;;;;;;5072067;28;20248;-77
2021/01/26 05:38:22;;;;;;;4.57;4.28;;;-2.00;99.90;;;;;;5062992;28;20217;-77
2021/01/26 05:40:53;;;;;;;5.07;4.78;;;-2.10;99.90;;;;;;5065856;28;20210;-76
2021/01/26 05:43:24;;;;;;;4.55;4.25;;;-2.10;99.90;;;;;;5064603;28;20214;-77
2021/01/26 05:45:54;;;;;;;4.75;4.45;;;-2.10;99.90;;;;;;5068193;28;20367;-78
2021/01/26 05:48:23;;;;;;;3.83;3.60;;;-2.20;99.90;;;;;;5069134;28;20225;-77
2021/01/26 05:50:53;;;;;;;4.13;3.92;;;-2.20;99.90;;;;;;5060511;28;20810;-77
2021/01/26 05:53:23;;;;;;;4.50;4.30;;;-2.20;99.90;;;;;;5064394;28;20241;-77
2021/01/26 05:55:59;;;;;;;4.10;3.90;;;-2.20;99.90;;;;;;5068007;28;20268;-78
2021/01/26 05:58:28;;;;;;;4.30;4.10;;;-2.20;99.90;;;;;;5064546;28;20728;-77
2021/01/26 06:00:59;;;;;;;4.53;4.32;;;-2.20;99.90;;;;;;5065684;28;20761;-78
2021/01/26 06:03:27;;;;;;;4.32;4.13;;;-2.10;99.90;;;;;;5069694;28;20742;-77
2021/01/26 06:06:02;;;;;;;4.40;4.20;;;-2.10;99.90;;;;;;5070714;28;20236;-77
2021/01/26 06:08:29;;;;;;;4.70;4.50;;;-2.10;99.90;;;;;;5068317;28;20604;-78
2021/01/26 06:10:57;;;;;;;4.47;4.28;;;-2.10;99.90;;;;;;5074355;28;20221;-77
2021/01/26 06:13:28;;;;;;;4.32;4.13;;;-2.10;99.90;;;;;;5066992;27;20271;-77
2021/01/26 06:16:20;;;;;;;4.00;3.80;;;-2.00;99.90;;;;;;5066180;27;20303;-76
2021/01/26 06:18:58;;;;;;;4.15;3.95;;;-2.00;99.90;;;;;;5060152;28;20224;-77
2021/01/26 06:21:26;;;;;;;4.40;4.20;;;-2.00;99.90;;;;;;5068571;27;20233;-79
2021/01/26 06:23:53;;;;;;;5.82;5.30;;;-2.10;99.90;;;;;;5072221;27;20760;-76
2021/01/26 06:26:19;;;;;;;10.18;9.23;;;-2.10;99.90;;;;;;5070878;27;20393;-76
2021/01/26 06:29:12;;;;;;;67.30;40.95;;;-2.10;99.90;;;;;;5077466;27;20236;-77
2021/01/26 06:31:53;;;;;;;79.10;45.88;;;-2.20;99.90;;;;;;5074127;28;20280;-77
2021/01/26 06:34:53;;;;;;;83.57;48.63;;;-2.20;99.90;;;;;;5071811;27;20225;-76
2021/01/26 06:37:40;;;;;;;55.13;35.83;;;-2.20;99.90;;;;;;5068392;27;20244;-77
2021/01/26 06:40:25;;;;;;;38.25;25.15;;;-2.20;99.90;;;;;;5069807;27;20697;-77
2021/01/26 06:43:02;;;;;;;30.17;20.38;;;-2.20;99.90;;;;;;5069624;27;20214;-76
2021/01/26 06:45:35;;;;;;;22.83;16.25;;;-2.20;99.90;;;;;;5067179;27;20226;-77
2021/01/26 06:48:31;;;;;;;17.13;13.27;;;-2.20;99.90;;;;;;5062281;27;20489;-80
2021/01/26 06:51:25;;;;;;;13.23;9.88;;;-2.10;99.90;;;;;;5057940;27;20241;-78
2021/01/26 06:54:02;;;;;;;11.90;8.75;;;-2.10;99.90;;;;;;5067293;27;20218;-81
2021/01/26 06:56:56;;;;;;;8.45;7.40;;;-2.20;99.90;;;;;;5068477;27;20225;-76
2021/01/26 06:59:46;;;;;;;6.80;6.20;;;-2.20;99.90;;;;;;5066508;27;20675;-78
2021/01/26 07:03:01;;;;;;;6.50;6.00;;;-2.10;99.90;;;;;;5070658;27;20230;-77
2021/01/26 07:06:01;;;;;;;5.65;5.18;;;-2.10;99.90;;;;;;5069392;28;20233;-78
2021/01/26 07:09:11;;;;;;;5.45;5.05;;;-2.10;99.90;;;;;;5068072;27;20230;-75
2021/01/26 07:12:00;;;;;;;5.05;4.75;;;-2.10;99.90;;;;;;5069886;28;20230;-76
2021/01/26 07:14:42;;;;;;;4.88;4.57;;;-2.00;99.90;;;;;;5072295;27;20237;-76
2021/01/26 07:17:09;;;;;;;4.70;4.40;;;-2.00;99.90;;;;;;5071354;27;20222;-75
2021/01/26 07:20:02;;;;;;;4.70;4.40;;;-2.00;99.90;;;;;;5077766;27;20647;-79
2021/01/26 07:23:10;;;;;;;4.40;4.20;;;-2.10;99.90;;;;;;5073997;27;20483;-78
2021/01/26 07:26:14;;;;;;;4.80;4.50;;;-2.10;99.90;;;;;;5020104;27;20210;-76
2021/01/26 07:28:56;;;;;;;4.90;4.60;;;-2.00;99.90;;;;;;5050926;27;20344;-76
2021/01/26 07:31:27;;;;;;;4.53;4.32;;;-2.00;99.90;;;;;;5057681;27;20230;-77
2021/01/26 07:34:03;;;;;;;4.28;3.97;;;-1.90;99.90;;;;;;5063759;27;20222;-74
2021/01/26 07:36:33;;;;;;;4.68;4.38;;;-1.90;99.90;;;;;;5063650;27;20294;-75
2021/01/26 07:39:06;;;;;;;5.10;4.28;;;-1.90;99.90;;;;;;5061725;27;20222;-75
2021/01/26 07:41:40;;;;;;;4.90;4.60;;;-1.90;99.90;;;;;;5065323;27;20288;-76
2021/01/26 07:44:14;;;;;;;5.00;4.80;;;-1.90;99.90;;;;;;5066283;27;20273;-77
2021/01/26 07:46:46;;;;;;;4.75;4.45;;;-2.00;99.90;;;;;;5064450;27;20225;-75
2021/01/26 07:49:19;;;;;;;4.90;4.60;;;-1.90;99.90;;;;;;5062453;27;20883;-76
2021/01/26 07:51:53;;;;;;;5.30;5.00;;;-1.90;99.90;;;;;;5062604;27;20241;-78
2021/01/26 07:54:28;;;;;;;6.05;5.65;;;-1.80;99.90;;;;;;5058628;27;20222;-76
2021/01/26 07:56:59;;;;;;;5.90;5.50;;;-1.80;99.90;;;;;;5062385;27;20222;-77
2021/01/26 07:59:30;;;;;;;7.13;6.63;;;-1.70;99.90;;;;;;5065153;27;20213;-75
2021/01/26 08:01:59;;;;;;;8.68;7.97;;;-1.70;99.90;;;;;;5057453;27;20237;-76
2021/01/26 08:04:28;;;;;;;6.93;6.43;;;-1.70;99.90;;;;;;5060729;27;20230;-77
2021/01/26 08:06:57;;;;;;;6.90;6.40;;;-1.70;99.90;;;;;;5064995;27;20598;-76
2021/01/26 08:09:33;;;;;;;6.63;6.13;;;-1.60;99.90;;;;;;5064060;27;21261;-76
2021/01/26 08:12:04;;;;;;;5.82;5.43;;;-1.60;99.90;;;;;;5062441;27;20220;-77
2021/01/26 08:14:34;;;;;;;5.72;5.38;;;-1.30;99.90;;;;;;5071391;27;20457;-75
2021/01/26 08:17:05;;;;;;;5.85;5.45;;;-0.40;99.90;;;;;;5062785;27;20741;-78
2021/01/26 08:19:34;;;;;;;5.05;4.75;;;0.60;99.90;;;;;;5061534;27;20229;-76
2021/01/26 08:22:22;;;;;;;5.90;5.50;;;1.60;99.90;;;;;;5060178;27;20263;-76
2021/01/26 08:24:59;;;;;;;5.78;5.38;;;2.50;99.90;;;;;;5062720;27;20250;-82
2021/01/26 08:28:01;;;;;;;6.47;5.97;;;3.40;99.90;;;;;;5063763;27;20245;-76
2021/01/26 08:31:02;;;;;;;6.80;6.20;;;4.20;99.90;;;;;;5045186;28;20246;-77
2021/01/26 08:33:31;;;;;;;7.00;6.50;;;4.60;99.90;;;;;;5066603;27;20218;-77
2021/01/26 08:36:07;;;;;;;7.53;6.90;;;4.90;99.90;;;;;;5069343;27;20237;-76
2021/01/26 08:38:49;;;;;;;5.90;5.50;;;5.10;99.90;;;;;;5057536;27;20300;-78
2021/01/26 08:41:41;;;;;;;6.47;5.82;;;5.20;99.90;;;;;;5059356;27;20608;-77
2021/01/26 08:44:53;;;;;;;5.93;5.43;;;6.00;99.90;;;;;;5060459;27;20667;-76
2021/01/26 08:47:43;;;;;;;6.15;5.55;;;6.40;99.90;;;;;;5064013;27;20226;-77
2021/01/26 08:50:13;;;;;;;5.97;5.47;;;6.50;99.90;;;;;;5058200;27;20726;-75
2021/01/26 08:52:40;;;;;;;5.57;5.07;;;6.50;99.90;;;;;;5062230;27;20610;-75
2021/01/26 08:55:07;;;;;;;5.60;5.20;;;6.60;99.90;;;;;;5059252;28;20234;-75
2021/01/26 08:57:43;;;;;;;5.57;5.18;;;6.70;99.90;;;;;;5058092;27;20230;-75
2021/01/26 09:00:42;;;;;;;5.63;5.13;;;6.90;99.90;;;;;;5039422;28;20288;-75
2021/01/26 09:03:32;;;;;;;5.40;4.93;;;6.90;99.90;;;;;;5015684;28;20239;-75
2021/01/26 09:06:04;;;;;;;5.50;5.05;;;6.90;99.90;;;;;;5075885;27;20217;-76
2021/01/26 09:08:58;;;;;;;6.20;5.70;;;6.60;99.90;;;;;;5067963;28;20671;-74
2021/01/26 09:11:48;;;;;;;5.63;5.00;;;6.70;99.90;;;;;;5042662;27;20242;-75
2021/01/26 09:14:25;;;;;;;5.35;4.95;;;6.90;99.90;;;;;;5059910;28;20573;-75
2021/01/26 09:16:59;;;;;;;5.18;4.78;;;7.20;99.90;;;;;;5061182;27;20224;-75
2021/01/26 09:19:31;;;;;;;5.07;4.65;;;7.70;99.90;;;;;;5057318;27;20356;-74
2021/01/26 09:22:05;;;;;;;6.20;4.68;;;7.90;99.90;;;;;;5057509;27;20242;-74
2021/01/26 09:24:34;;;;;;;5.05;4.65;;;7.90;99.90;;;;;;5059634;27;20524;-74
2021/01/26 09:27:16;;;;;;;5.50;4.97;;;7.90;99.90;;;;;;5064153;27;20240;-74
2021/01/26 09:29:43;;;;;;;5.25;4.75;;;8.20;99.90;;;;;;5052958;27;20280;-75
2021/01/26 09:32:11;;;;;;;6.07;5.57;;;8.50;99.90;;;;;;5054889;28;20242;-74
2021/01/26 09:34:38;;;;;;;10.88;9.32;;;9.40;99.90;;;;;;5060227;28;20218;-75
2021/01/26 09:37:14;;;;;;;7.80;7.00;;;10.80;99.90;;;;;;5058838;28;20233;-74
2021/01/26 09:39:41;;;;;;;5.68;5.05;;;12.40;99.90;;;;;;5051406;28;20334;-74
2021/01/26 09:42:17;;;;;;;5.47;4.97;;;13.70;99.90;;;;;;5054012;28;20225;-74
2021/01/26 09:44:56;;;;;;;4.57;4.18;;;15.30;95.50;;;;;;5049565;28;20225;-75
2021/01/26 09:47:23;;;;;;;4.72;4.32;;;16.30;89.80;;;;;;5057884;28;20652;-74
2021/01/26 09:49:50;;;;;;;4.57;4.15;;;16.70;87.50;;;;;;5060134;28;20673;-74
2021/01/26 09:52:19;;;;;;;4.50;4.10;;;16.90;83.70;;;;;;5051218;28;20233;-73
2021/01/26 09:54:52;;;;;;;4.68;4.28;;;16.10;79.50;;;;;;5051738;28;20313;-74
2021/01/26 09:57:20;;;;;;;4.55;3.83;;;14.50;83.60;;;;;;5058014;28;20237;-76
2021/01/26 09:59:47;;;;;;;4.40;4.07;;;13.20;86.50;;;;;;5076023;28;20210;-74
2021/01/26 10:02:16;;;;;;;4.68;4.10;;;12.10;90.50;;;;;;5060380;28;20233;-76
2021/01/26 10:04:45;;;;;;;3.83;3.50;;;11.50;91.90;;;;;;5063739;28;20220;-75
2021/01/26 10:07:14;;;;;;;4.50;4.10;;;11.10;93.90;;;;;;5061448;28;20625;-74
2021/01/26 10:09:42;;;;;;;4.22;3.92;;;10.60;93.30;;;;;;5058320;28;20218;-72
2021/01/26 10:12:22;;;;;;;4.20;3.85;;;10.40;94.30;;;;;;5064517;28;20241;-73
2021/01/26 10:15:11;;;;;;;4.25;3.85;;;10.30;94.70;;;;;;5063524;28;20284;-74
2021/01/26 10:17:52;;;;;;;3.70;3.40;;;10.40;95.20;;;;;;5063450;28;20650;-74
2021/01/26 10:20:27;;;;;;;4.40;4.00;;;10.50;95.50;;;;;;5058900;28;20224;-73
2021/01/26 10:23:03;;;;;;;6.22;4.90;;;10.60;95.80;;;;;;5058134;28;20711;-72
2021/01/26 10:25:30;;;;;;;5.97;4.72;;;10.20;95.30;;;;;;5060729;28;20218;-73
2021/01/26 10:28:06;;;;;;;5.15;4.70;;;10.00;97.20;;;;;;5060779;28;20214;-73
2021/01/26 10:30:40;;;;;;;4.63;4.22;;;9.80;97.10;;;;;;5051522;28;20221;-71
2021/01/26 10:33:07;;;;;;;4.60;4.20;;;9.50;97.10;;;;;;5060613;28;20222;-72
2021/01/26 10:35:37;;;;;;;5.28;4.82;;;9.30;97.80;;;;;;5063160;28;20218;-74
2021/01/26 10:38:26;;;;;;;4.35;3.67;;;9.30;98.00;;;;;;5054728;28;20222;-72
2021/01/26 10:41:05;;;;;;;5.35;4.50;;;9.20;97.70;;;;;;5052754;28;20214;-73
2021/01/26 10:43:31;;;;;;;4.32;3.92;;;9.20;98.00;;;;;;5060001;28;20210;-73
2021/01/26 10:45:58;;;;;;;3.85;3.55;;;9.10;97.00;;;;;;5059201;28;20237;-74
2021/01/26 10:48:29;;;;;;;3.97;3.58;;;8.90;98.60;;;;;;5062592;28;20225;-75
2021/01/26 10:51:09;;;;;;;4.85;3.72;;;8.70;98.50;;;;;;5073105;28;20222;-75
2021/01/26 10:53:38;;;;;;;4.22;3.83;;;8.70;98.50;;;;;;5067434;28;20211;-73
2021/01/26 10:56:06;;;;;;;4.05;3.75;;;8.50;98.20;;;;;;5064886;28;20230;-74
2021/01/26 10:58:33;;;;;;;4.35;4.05;;;8.40;98.20;;;;;;5064246;27;20803;-74
2021/01/26 11:00:59;;;;;;;3.97;3.58;;;8.30;98.10;;;;;;5063047;27;20226;-74
2021/01/26 11:03:26;;;;;;;4.68;4.38;;;8.30;98.60;;;;;;5061865;27;20226;-74
2021/01/26 11:05:53;;;;;;;4.13;3.83;;;8.40;98.60;;;;;;5059172;27;20217;-75
2021/01/26 11:08:20;;;;;;;4.40;3.60;;;8.70;98.70;;;;;;5057393;27;20222;-76
2021/01/26 11:10:47;;;;;;;4.18;3.88;;;9.40;98.30;;;;;;5061368;27;20217;-76
2021/01/26 11:13:14;;;;;;;6.05;3.83;;;9.70;97.90;;;;;;5059712;27;20222;-75
2021/01/26 11:15:41;;;;;;;4.22;3.80;;;9.60;96.20;;;;;;5049020;27;20222;-75
2021/01/26 11:18:08;;;;;;;3.70;3.40;;;9.40;97.10;;;;;;5061072;27;20226;-75
2021/01/26 11:20:35;;;;;;;4.03;3.70;;;9.70;97.10;;;;;;5062462;27;20611;-76
2021/01/26 11:23:01;;;;;;;4.40;3.50;;;9.90;96.40;;;;;;5059970;27;20266;-75
2021/01/26 11:25:29;;;;;;;3.90;3.55;;;9.80;97.20;;;;;;5055832;27;20229;-76
2021/01/26 11:27:56;;;;;;;3.63;3.33;;;9.90;97.00;;;;;;5057833;27;20241;-76
2021/01/26 11:30:24;;;;;;;3.90;3.60;;;9.80;96.80;;;;;;5059416;27;20218;-75
2021/01/26 11:32:51;;;;;;;3.50;3.10;;;9.60;96.40;;;;;;5056983;27;20299;-75
2021/01/26 11:35:20;;;;;;;3.30;3.00;;;9.40;96.10;;;;;;5056908;27;20218;-76
2021/01/26 11:37:47;;;;;;;3.20;3.00;;;9.40;95.50;;;;;;5054925;27;20280;-76
2021/01/26 11:40:15;;;;;;;3.05;2.85;;;9.40;95.30;;;;;;5055915;27;20230;-76
2021/01/26 11:42:43;;;;;;;2.92;2.72;;;9.40;95.20;;;;;;5071017;28;20220;-76
2021/01/26 11:45:13;;;;;;;3.70;3.40;;;9.50;95.20;;;;;;5058796;27;20226;-76
2021/01/26 11:47:40;;;;;;;3.40;3.10;;;9.40;95.40;;;;;;5059135;27;20225;-75
2021/01/26 11:50:09;;;;;;;3.20;3.00;;;9.60;95.80;;;;;;5057875;27;20295;-76
2021/01/26 11:52:36;;;;;;;3.20;3.00;;;9.80;95.30;;;;;;5058247;27;20226;-76
2021/01/26 11:55:04;;;;;;;3.28;2.95;;;10.00;95.70;;;;;;5061810;27;20231;-76
2021/01/26 11:57:31;;;;;;;2.88;2.67;;;10.30;95.50;;;;;;5054840;27;20294;-75
2021/01/26 11:59:59;;;;;;;3.35;3.15;;;10.60;94.30;;;;;;5056530;27;20229;-75
2021/01/26 12:02:26;;;;;;;3.17;2.97;;;10.40;94.20;;;;;;5056538;28;20250;-75
2021/01/26 12:04:52;;;;;;;2.88;2.67;;;10.20;93.90;;;;;;5056994;27;20230;-75
2021/01/26 12:07:19;;;;;;;3.10;2.90;;;10.00;93.80;;;;;;5057057;27;20736;-75
2021/01/26 12:09:45;;;;;;;2.65;2.45;;;9.90;94.80;;;;;;5054208;27;20284;-75
2021/01/26 12:12:14;;;;;;;3.10;2.85;;;9.80;93.90;;;;;;5055272;27;20234;-75
2021/01/26 12:14:40;;;;;;;3.63;3.33;;;9.90;93.90;;;;;;5057537;27;20316;-76
2021/01/26 12:17:08;;;;;;;3.03;2.80;;;9.60;93.60;;;;;;5053714;28;20281;-75
2021/01/26 12:19:34;;;;;;;5.85;3.60;;;9.50;94.50;;;;;;5055295;27;20210;-75
2021/01/26 12:22:01;;;;;;;3.80;3.50;;;9.50;94.30;;;;;;5054069;27;20533;-75
2021/01/26 12:24:28;;;;;;;4.82;3.95;;;9.40;94.10;;;;;;5055000;27;20230;-75
2021/01/26 12:26:55;;;;;;;3.80;3.50;;;9.40;93.80;;;;;;5053670;27;20226;-75
2021/01/26 12:29:22;;;;;;;5.55;3.75;;;9.40;93.60;;;;;;5055053;27;20218;-75
2021/01/26 12:31:49;;;;;;;5.43;4.13;;;9.20;94.00;;;;;;5053310;27;20499;-75
2021/01/26 12:34:17;;;;;;;4.82;3.88;;;9.10;94.80;;;;;;5060950;27;20785;-75
2021/01/26 12:36:43;;;;;;;4.20;3.90;;;9.30;96.20;;;;;;5056162;27;20233;-76
2021/01/26 12:39:10;;;;;;;5.10;3.80;;;9.40;95.20;;;;;;5055748;27;20229;-73
2021/01/26 12:41:36;;;;;;;4.30;3.90;;;9.40;99.80;;;;;;5053073;27;20629;-73
2021/01/26 12:44:06;;;;;;;4.60;4.05;;;10.00;99.90;;;;;;5052432;27;20222;-71
2021/01/26 12:46:33;;;;;;;6.10;3.95;;;10.00;97.40;;;;;;5053676;27;20295;-72
2021/01/26 12:49:00;;;;;;;4.47;4.10;;;9.80;98.10;;;;;;5053761;27;20248;-72
2021/01/26 12:51:28;;;;;;;4.13;3.72;;;9.70;99.90;;;;;;5055083;27;20226;-73
2021/01/26 12:53:56;;;;;;;3.92;3.63;;;9.90;98.20;;;;;;5059646;27;20214;-72
2021/01/26 12:56:23;;;;;;;3.50;3.20;;;9.80;98.90;;;;;;5055538;27;20756;-71
2021/01/26 12:58:49;;;;;;;3.60;3.40;;;9.90;99.70;;;;;;5050352;27;20218;-74
2021/01/26 13:01:16;;;;;;;3.63;3.28;;;10.10;99.00;;;;;;5051546;27;20226;-72
2021/01/26 13:03:43;;;;;;;3.83;3.53;;;9.90;96.40;;;;;;5055480;27;20218;-72
2021/01/26 13:06:10;;;;;;;4.75;3.53;;;9.60;96.30;;;;;;5053967;27;20271;-72
2021/01/26 13:08:37;;;;;;;4.32;3.58;;;9.60;97.10;;;;;;5055488;28;20222;-71
2021/01/26 13:11:04;;;;;;;3.47;3.17;;;9.50;97.70;;;;;;5050799;27;20218;-73
2021/01/26 13:13:31;;;;;;;4.82;3.70;;;9.70;97.90;;;;;;5053647;27;20852;-72
2021/01/26 13:15:57;;;;;;;5.78;3.47;;;9.80;97.20;;;;;;5048183;27;20225;-74
2021/01/26 13:18:24;;;;;;;3.00;2.80;;;9.80;97.30;;;;;;5052471;27;20229;-72
2021/01/26 13:20:51;;;;;;;3.70;3.40;;;9.60;96.00;;;;;;5052218;27;20229;-73